Time;durP1;ratioP1;P1;durP2;ratioP2;P2;SDS_P1;SDS_P2;PMS_P1;PMS_P2;Temp;Humidity;BMP_temperature;BMP_pressure;BME280_temperature;BME280_humidity;BME280_pressure;Samples;Min_cycle;Max_cycle;Signal;HPM_P1;HPM_P2
2022/11/02 00:02:07;;;;;;;5.93;4.47;;;;;;;31.43;21.78;98542.22;6244980;23;20058;-82
2022/11/02 00:04:33;;;;;;;9.23;4.53;;;;;;;31.44;21.44;98543.03;6244589;23;20008;-82
2022/11/02 00:06:59;;;;;;;8.18;4.38;;;;;;;31.39;21.75;98547.25;6245302;23;20004;-82
2022/11/02 00:09:25;;;;;;;9.02;4.15;;;;;;;31.47;21.28;98547.72;6244619;23;20516;-82
2022/11/02 00:11:51;;;;;;;8.32;5.20;;;;;;;31.42;21.54;98551.94;6245395;23;20004;-82
2022/11/02 00:14:17;;;;;;;5.97;4.03;;;;;;;31.18;21.71;98539.66;6245411;23;20087;-82
2022/11/02 00:16:44;;;;;;;4.53;3.17;;;;;;;31.01;22.22;98547.69;6245462;23;20000;-82
2022/11/02 00:19:10;;;;;;;5.90;4.18;;;;;;;30.88;22.44;98532.84;6245299;23;20004;-82
2022/11/02 00:21:36;;;;;;;5.85;4.07;;;;;;;30.75;22.35;98547.13;6244605;22;20008;-82
2022/11/02 00:24:04;;;;;;;6.25;3.58;;;;;;;30.80;22.37;98537.22;6243299;23;20015;-82
2022/11/02 00:26:34;;;;;;;6.03;3.28;;;;;;;31.08;22.15;98532.41;6244644;22;20083;-81
2022/11/02 00:29:00;;;;;;;6.72;3.67;;;;;;;30.72;22.71;98544.44;6240826;23;20319;-81
2022/11/02 00:31:26;;;;;;;5.03;3.72;;;;;;;30.83;22.06;98532.66;6243574;23;20034;-81
2022/11/02 00:33:52;;;;;;;6.72;3.78;;;;;;;30.72;22.25;98538.75;6243324;23;20016;-81
2022/11/02 00:36:18;;;;;;;5.70;3.92;;;;;;;30.62;22.69;98537.19;6243906;23;20316;-81
2022/11/02 00:38:44;;;;;;;6.97;3.88;;;;;;;30.89;22.05;98534.44;6244319;22;20008;-81
2022/11/02 00:41:11;;;;;;;7.00;4.22;;;;;;;30.88;22.21;98543.38;6244536;23;20013;-80
2022/11/02 00:43:37;;;;;;;9.02;4.30;;;;;;;30.98;22.07;98531.59;6246398;22;20119;-80
2022/11/02 00:46:04;;;;;;;6.97;4.25;;;;;;;31.13;21.90;98540.28;6246054;23;20011;-80
2022/11/02 00:48:30;;;;;;;5.50;4.47;;;;;;;31.20;21.56;98532.22;6246933;23;20028;-80
2022/11/02 00:50:56;;;;;;;5.00;3.33;;;;;;;31.29;21.45;98537.94;6247219;23;20008;-80
2022/11/02 00:53:22;;;;;;;6.82;4.03;;;;;;;31.39;21.64;98535.91;6246770;23;20004;-80
2022/11/02 00:55:48;;;;;;;5.32;3.22;;;;;;;31.47;21.50;98530.69;6246348;23;20012;-80
2022/11/02 00:58:14;;;;;;;9.80;4.32;;;;;;;31.39;21.35;98530.97;6246223;23;20008;-80
2022/11/02 01:00:41;;;;;;;7.22;4.18;;;;;;;30.97;21.83;98534.91;6246065;23;20126;-80
2022/11/02 01:03:07;;;;;;;5.65;3.78;;;;;;;31.11;21.88;98531.47;6244673;23;20030;-80
2022/11/02 01:05:33;;;;;;;7.43;3.80;;;;;;;31.20;21.49;98535.06;6246411;23;20460;-79
2022/11/02 01:07:59;;;;;;;4.97;3.25;;;;;;;31.25;21.34;98536.53;6244059;23;20012;-80
2022/11/02 01:10:25;;;;;;;7.18;4.20;;;;;;;30.99;21.62;98547.38;6245946;23;20012;-79
2022/11/02 01:12:51;;;;;;;4.80;3.53;;;;;;;31.02;21.73;98546.41;6246055;23;20333;-80
2022/11/02 01:15:17;;;;;;;5.25;3.80;;;;;;;31.07;21.85;98533.66;6247163;23;20061;-80
2022/11/02 01:17:43;;;;;;;8.07;3.00;;;;;;;31.11;21.66;98539.97;6245615;23;20011;-81
2022/11/02 01:20:09;;;;;;;5.90;4.00;;;;;;;31.11;21.73;98539.97;6245916;23;20015;-81
2022/11/02 01:22:35;;;;;;;7.45;3.67;;;;;;;31.01;21.71;98542.00;6246861;22;20004;-81
2022/11/02 01:25:02;;;;;;;4.72;3.42;;;;;;;30.94;21.92;98547.19;6246230;23;20011;-81
2022/11/02 01:27:28;;;;;;;7.72;3.50;;;;;;;30.99;21.75;98541.69;6245035;23;20092;-81
2022/11/02 01:29:54;;;;;;;6.15;3.80;;;;;;;31.04;21.79;98526.88;6245403;23;20012;-81
2022/11/02 01:32:20;;;;;;;5.55;3.85;;;;;;;31.07;21.64;98523.09;6246547;23;20016;-80
2022/11/02 01:34:46;;;;;;;5.07;3.95;;;;;;;31.22;21.38;98537.47;6246408;23;20012;-79
2022/11/02 01:37:12;;;;;;;5.72;3.42;;;;;;;31.16;21.71;98537.28;6245987;23;20004;-80
2022/11/02 01:39:38;;;;;;;8.27;4.35;;;;;;;30.91;21.77;98539.63;6245218;23;20042;-79
2022/11/02 01:42:17;;;;;;;5.15;2.90;;;;;;;30.68;22.27;98547.44;6247145;22;20330;-79
2022/11/02 01:44:43;;;;;;;7.18;4.22;;;;;;;30.68;22.07;98547.44;6245438;22;20366;-79
2022/11/02 01:47:36;;;;;;;5.88;3.92;;;;;;;30.42;22.59;98545.28;6246446;23;20018;-79
2022/11/02 01:50:15;;;;;;;4.88;3.85;;;;;;;30.56;22.51;98544.69;6246073;22;20011;-79
2022/11/02 01:52:41;;;;;;;6.20;4.15;;;;;;;30.54;22.48;98536.69;6245306;22;20008;-80
2022/11/02 01:55:28;;;;;;;6.25;4.25;;;;;;;30.55;22.35;98543.13;6245994;23;20012;-79
2022/11/02 01:57:59;;;;;;;7.97;4.20;;;;;;;30.38;22.45;98545.44;6246031;22;20061;-79
2022/11/02 02:00:25;;;;;;;8.93;4.35;;;;;;;30.36;22.61;98541.50;6245041;22;20058;-81
2022/11/02 02:03:03;;;;;;;5.60;4.13;;;;;;;30.47;22.60;98547.50;6246014;22;20015;-81
2022/11/02 02:05:32;;;;;;;6.57;4.57;;;;;;;29.95;23.03;98546.28;6245212;22;20035;-81
2022/11/02 02:07:59;;;;;;;7.38;5.50;;;;;;;30.12;22.91;98552.53;6245399;22;20083;-81
2022/11/02 02:10:25;;;;;;;8.40;5.22;;;;;;;30.06;22.98;98549.50;6244768;23;20020;-81
2022/11/02 02:12:52;;;;;;;5.95;3.95;;;;;;;30.19;22.99;98549.41;6245685;23;20042;-81
2022/11/02 02:15:21;;;;;;;6.50;4.68;;;;;;;30.35;22.76;98563.34;6245244;23;20047;-81
2022/11/02 02:17:51;;;;;;;6.32;3.92;;;;;;;30.46;22.73;98557.25;6245362;22;20004;-81
2022/11/02 02:20:30;;;;;;;9.07;5.00;;;;;;;30.31;22.72;98556.22;6243698;23;20016;-81
2022/11/02 02:23:32;;;;;;;6.85;4.20;;;;;;;30.39;22.95;98564.00;6245506;22;20022;-81
2022/11/02 02:26:16;;;;;;;;;;;;;;;30.63;22.56;98555.75;6246591;22;20008;-81
2022/11/02 02:28:46;;;;;;;8.10;3.88;;;;;;;30.95;22.04;98566.56;6246836;22;19919;-81
2022/11/02 02:31:18;;;;;;;10.43;3.80;;;;;;;31.12;21.86;98564.22;6245598;23;20008;-81
2022/11/02 02:33:56;;;;;;;6.43;4.07;;;;;;;31.13;22.07;98560.94;6245338;22;20038;-81
2022/11/02 02:36:34;;;;;;;6.55;3.92;;;;;;;31.11;21.87;98560.59;6245399;22;20012;-81
2022/11/02 02:39:10;;;;;;;5.60;3.38;;;;;;;31.25;21.70;98553.53;6245286;22;20004;-81
2022/11/02 02:41:46;;;;;;;9.45;5.20;;;;;;;31.26;21.52;98553.06;6244828;22;20014;-81
2022/11/02 02:44:20;;;;;;;8.50;4.28;;;;;;;30.76;22.16;98556.41;6246373;22;20453;-81
2022/11/02 02:46:49;;;;;;;8.32;4.22;;;;;;;30.92;21.86;98561.06;6245650;22;20016;-81
2022/11/02 02:49:23;;;;;;;12.30;6.50;;;;;;;30.82;21.66;98563.06;6245714;23;20338;-81
2022/11/02 02:51:50;;;;;;;7.85;4.78;;;;;;;30.77;21.63;98566.50;6244539;22;20067;-81
2022/11/02 02:54:24;;;;;;;7.03;4.18;;;;;;;30.80;21.89;98565.56;6243793;23;20339;-81
2022/11/02 02:56:56;;;;;;;10.43;4.97;;;;;;;30.70;22.06;98570.41;6244903;22;20036;-81
2022/11/02 02:59:35;;;;;;;5.90;3.17;;;;;;;30.67;21.98;98564.88;6243865;22;20012;-81
2022/11/02 03:02:06;;;;;;;6.15;4.20;;;;;;;30.46;21.91;98572.22;6244901;22;20018;-81
2022/11/02 03:04:32;;;;;;;5.32;3.38;;;;;;;30.22;22.24;98576.81;6245302;22;20058;-80
2022/11/02 03:07:00;;;;;;;7.60;4.00;;;;;;;30.20;22.30;98567.97;6244163;23;20019;-81
2022/11/02 03:09:40;;;;;;;5.70;3.58;;;;;;;30.28;22.16;98574.16;6244592;22;20008;-81
2022/11/02 03:12:32;;;;;;;6.57;4.20;;;;;;;29.96;22.57;98573.38;6244661;22;20035;-80
2022/11/02 03:15:20;;;;;;;6.45;3.63;;;;;;;29.52;23.26;98582.28;6245207;22;20034;-81
2022/11/02 03:17:58;;;;;;;6.63;4.68;;;;;;;29.60;23.37;98580.75;6245063;23;20032;-81
2022/11/02 03:20:54;;;;;;;5.82;4.18;;;;;;;29.43;23.45;98578.13;6244889;23;20071;-81
2022/11/02 03:23:42;;;;;;;8.00;4.63;;;;;;;29.63;23.44;98574.97;6235361;22;20315;-81
2022/11/02 03:26:26;;;;;;;7.38;4.22;;;;;;;30.12;22.91;98578.00;6244995;22;20008;-80
2022/11/02 03:29:00;;;;;;;6.25;4.65;;;;;;;30.21;22.18;98580.88;6244734;22;20099;-81
2022/11/02 03:32:06;;;;;;;8.55;4.50;;;;;;;30.36;22.08;98579.13;6244859;23;20434;-80
2022/11/02 03:34:46;;;;;;;6.75;3.53;;;;;;;30.53;21.38;98579.63;6243875;22;20009;-81
2022/11/02 03:37:25;;;;;;;5.13;3.88;;;;;;;29.97;21.71;98582.63;6245279;22;20015;-80
2022/11/02 03:40:04;;;;;;;5.88;4.07;;;;;;;29.62;22.17;98581.09;6244692;22;20009;-80
2022/11/02 03:42:33;;;;;;;4.68;3.30;;;;;;;29.60;22.01;98586.41;6245149;22;20158;-80
2022/11/02 03:45:22;;;;;;;7.63;3.60;;;;;;;29.51;22.51;98581.47;6244336;22;20138;-81
2022/11/02 03:48:00;;;;;;;5.35;3.42;;;;;;;29.58;22.11;98586.09;6243968;23;20019;-81
2022/11/02 03:50:26;;;;;;;6.57;3.80;;;;;;;29.76;22.27;98583.41;6244498;22;20004;-81
2022/11/02 03:53:09;;;;;;;6.97;3.88;;;;;;;29.42;21.94;98590.69;6243693;23;20008;-81
2022/11/02 03:55:41;;;;;;;4.15;3.10;;;;;;;29.33;22.07;98593.44;6245649;22;20004;-81
2022/11/02 03:58:10;;;;;;;6.35;3.50;;;;;;;29.25;22.30;98594.94;6245078;22;20018;-81
2022/11/02 04:00:44;;;;;;;10.20;4.18;;;;;;;29.38;22.44;98592.06;6244472;22;20008;-81
2022/11/02 04:03:11;;;;;;;6.82;3.90;;;;;;;29.49;22.10;98591.69;6241895;23;20020;-80
2022/11/02 04:05:37;;;;;;;6.85;4.13;;;;;;;29.59;21.88;98590.50;6245192;23;20100;-81
2022/11/02 04:08:23;;;;;;;6.60;4.35;;;;;;;29.74;21.75;98597.22;6244328;23;20011;-81
2022/11/02 04:16:21;;;;;;;6.82;4.57;;;;;;;29.56;22.03;98603.53;6244297;23;20022;-81
2022/11/02 04:25:14;;;;;;;6.28;4.20;;;;;;;29.48;22.40;98601.44;6228600;22;20062;-81
2022/11/02 04:27:13;;;;;;;7.43;4.53;;;;;;;29.13;22.54;98612.69;6245688;22;20019;-81
2022/11/02 04:29:39;;;;;;;6.70;4.07;;;;;;;29.14;22.78;98605.00;6246332;23;20015;-81
2022/11/02 04:32:05;;;;;;;6.18;4.40;;;;;;;29.13;22.55;98615.53;6247409;23;20008;-81
2022/11/02 04:34:31;;;;;;;5.53;3.90;;;;;;;29.28;22.43;98607.38;6245475;23;20058;-81
2022/11/02 04:36:57;;;;;;;6.55;4.32;;;;;;;29.54;21.96;98608.06;6246259;23;20373;-81
2022/11/02 04:39:23;;;;;;;6.75;4.32;;;;;;;28.88;22.25;98614.78;6246423;23;20004;-81
2022/11/02 04:41:49;;;;;;;6.25;3.83;;;;;;;28.78;22.55;98613.09;6245328;23;20008;-81
2022/11/02 04:44:15;;;;;;;5.78;3.33;;;;;;;28.92;22.29;98615.44;6245726;23;20343;-80
2022/11/02 04:46:43;;;;;;;6.72;4.75;;;;;;;29.12;22.21;98608.31;6245596;22;20020;-80
2022/11/02 04:49:10;;;;;;;6.95;4.13;;;;;;;29.29;21.88;98609.72;6245925;22;20085;-80
2022/11/02 04:51:39;;;;;;;7.03;4.43;;;;;;;29.11;22.31;98612.34;6245502;22;20008;-80
2022/11/02 04:54:05;;;;;;;9.40;4.18;;;;;;;29.21;21.92;98610.44;6246708;22;20371;-80
2022/11/02 04:56:31;;;;;;;5.20;3.97;;;;;;;29.39;21.85;98614.25;6244453;23;20019;-80
2022/11/02 04:58:58;;;;;;;8.82;4.97;;;;;;;29.04;22.12;98623.91;6245354;23;20016;-80
2022/11/02 05:01:27;;;;;;;4.32;3.50;;;;;;;29.08;22.04;98626.63;6245319;22;20008;-80
2022/11/02 05:03:54;;;;;;;6.38;4.10;;;;;;;29.15;21.99;98630.00;6246026;22;20432;-80
2022/11/02 05:06:22;;;;;;;6.15;4.00;;;;;;;29.25;22.12;98630.91;6245560;22;20014;-80
2022/11/02 05:08:48;;;;;;;6.53;4.00;;;;;;;29.43;21.99;98629.03;6245485;22;20438;-80
2022/11/02 05:11:14;;;;;;;5.45;3.92;;;;;;;29.46;21.85;98620.88;6245443;23;20027;-80
2022/11/02 05:13:41;;;;;;;5.90;3.80;;;;;;;29.54;21.56;98611.72;6244442;23;20409;-80
2022/11/02 05:16:16;;;;;;;5.10;3.28;;;;;;;29.69;21.28;98617.63;6245690;23;20488;-80
2022/11/02 05:18:42;;;;;;;4.88;3.58;;;;;;;29.76;21.08;98612.53;6245924;22;20026;-80
2022/11/02 05:21:10;;;;;;;6.93;3.90;;;;;;;29.62;21.03;98613.00;6246473;22;20008;-80
2022/11/02 05:23:37;;;;;;;4.57;3.13;;;;;;;29.17;21.98;98629.56;6245516;22;20015;-80
2022/11/02 05:26:06;;;;;;;7.82;4.20;;;;;;;29.09;21.95;98628.19;6245601;22;20016;-80
2022/11/02 05:28:32;;;;;;;6.32;3.05;;;;;;;29.09;21.83;98629.00;6244667;22;20008;-80
2022/11/02 05:30:59;;;;;;;5.53;3.15;;;;;;;28.92;22.02;98621.09;6245110;22;20008;-80
2022/11/02 05:33:28;;;;;;;7.05;3.80;;;;;;;28.96;22.13;98631.06;6244303;22;20449;-80
2022/11/02 05:35:56;;;;;;;6.40;3.75;;;;;;;29.17;22.07;98635.97;6244867;22;20051;-80
2022/11/02 05:38:23;;;;;;;6.18;3.58;;;;;;;29.25;22.00;98633.72;6245499;22;20457;-81
2022/11/02 05:40:57;;;;;;;5.88;3.45;;;;;;;29.33;22.00;98635.88;6243014;22;20023;-81
2022/11/02 05:43:24;;;;;;;6.70;3.70;;;;;;;29.51;21.83;98642.94;6244362;22;20009;-80
2022/11/02 05:45:58;;;;;;;7.18;4.22;;;;;;;29.41;22.32;98637.19;6243992;23;20005;-81
2022/11/02 05:48:25;;;;;;;6.68;4.10;;;;;;;29.57;21.93;98627.75;6244872;22;20012;-84
2022/11/02 05:51:01;;;;;;;6.35;3.88;;;;;;;29.68;21.92;98647.19;6243831;22;20086;-82
2022/11/02 05:53:32;;;;;;;7.00;3.95;;;;;;;29.71;21.52;98643.44;6246498;22;20016;-82
2022/11/02 05:56:00;;;;;;;4.88;3.40;;;;;;;29.78;21.64;98632.66;6246461;22;20091;-82
2022/11/02 05:58:27;;;;;;;6.65;4.25;;;;;;;29.02;22.08;98651.84;6246151;22;20042;-82
2022/11/02 06:00:53;;;;;;;4.40;3.67;;;;;;;29.20;22.01;98645.63;6246324;22;20012;-82
2022/11/02 06:03:20;;;;;;;6.47;4.78;;;;;;;29.39;22.26;98651.03;6246783;23;20085;-81
2022/11/02 06:05:46;;;;;;;6.72;4.30;;;;;;;29.46;22.14;98652.81;6246811;22;20009;-82
2022/11/02 06:08:12;;;;;;;6.07;4.03;;;;;;;29.45;22.59;98650.44;6246540;23;20454;-82
2022/11/02 06:10:41;;;;;;;8.10;4.82;;;;;;;29.54;22.30;98647.69;6246538;23;20079;-82
2022/11/02 06:13:07;;;;;;;6.05;4.50;;;;;;;29.57;22.58;98650.38;6246824;22;20039;-81
2022/11/02 06:15:33;;;;;;;7.15;4.78;;;;;;;29.47;23.18;98659.25;6246311;23;20010;-82
2022/11/02 06:18:00;;;;;;;10.57;5.30;;;;;;;29.39;23.11;98650.22;6246792;22;20031;-82
2022/11/02 06:20:26;;;;;;;9.07;5.20;;;;;;;29.46;22.88;98661.28;6246908;23;20012;-82
2022/11/02 06:22:52;;;;;;;9.45;4.50;;;;;;;29.51;23.20;98662.75;6246499;23;20008;-81
2022/11/02 06:25:18;;;;;;;6.13;4.60;;;;;;;29.48;23.16;98646.72;6246419;23;20504;-81
2022/11/02 06:27:51;;;;;;;8.25;4.72;;;;;;;29.76;22.84;98652.16;6246491;23;20012;-82
2022/11/02 06:30:18;;;;;;;12.02;6.20;;;;;;;29.65;23.02;98654.56;6246575;22;20390;-81
2022/11/02 06:32:48;;;;;;;7.40;5.28;;;;;;;29.03;24.30;98661.94;6246226;23;20330;-82
2022/11/02 06:35:16;;;;;;;10.82;6.45;;;;;;;29.18;24.31;98665.09;6245937;22;20012;-82
2022/11/02 06:37:42;;;;;;;7.00;4.25;;;;;;;28.70;24.96;98660.59;6246595;22;20010;-82
2022/11/02 06:40:09;;;;;;;10.52;5.75;;;;;;;29.39;24.42;98662.34;6245125;23;20008;-81
2022/11/02 06:42:36;;;;;;;8.73;5.30;;;;;;;30.01;23.49;98657.69;6246396;22;20015;-82
2022/11/02 06:45:02;;;;;;;12.93;6.47;;;;;;;30.34;23.04;98658.09;6246132;22;20009;-82
2022/11/02 06:47:33;;;;;;;8.65;5.43;;;;;;;30.38;23.10;98663.66;6246597;22;20086;-82
2022/11/02 06:49:59;;;;;;;9.57;6.50;;;;;;;30.30;23.02;98674.44;6246457;22;20019;-82
2022/11/02 06:52:29;;;;;;;7.53;4.93;;;;;;;29.96;23.47;98663.19;6245862;23;20012;-82
2022/11/02 06:54:55;;;;;;;8.50;5.20;;;;;;;29.63;23.87;98671.22;6246841;22;20019;-82
2022/11/02 06:57:22;;;;;;;7.45;5.28;;;;;;;30.01;23.98;98663.38;6246052;22;20018;-82
2022/11/02 06:59:48;;;;;;;9.02;4.80;;;;;;;30.34;23.22;98663.00;6246220;22;20039;-82
2022/11/02 07:02:14;;;;;;;9.77;5.13;;;;;;;30.35;23.30;98661.72;6246137;23;20082;-82
2022/11/02 07:04:40;;;;;;;7.65;5.38;;;;;;;29.96;23.64;98660.34;6246089;23;20008;-82
2022/11/02 07:07:06;;;;;;;6.53;4.63;;;;;;;29.76;23.88;98662.69;6246145;23;20004;-81
2022/11/02 07:09:32;;;;;;;10.88;5.80;;;;;;;29.05;24.63;98669.94;6245851;23;20418;-82
2022/11/02 07:11:58;;;;;;;13.02;6.97;;;;;;;29.17;24.94;98674.81;6245906;23;20008;-82
2022/11/02 07:14:24;;;;;;;7.95;5.40;;;;;;;29.38;24.73;98674.88;6245853;23;20037;-82
2022/11/02 07:16:51;;;;;;;8.68;6.72;;;;;;;29.65;24.58;98674.38;6245982;23;20012;-82
2022/11/02 07:19:17;;;;;;;10.27;5.13;;;;;;;30.18;24.04;98672.44;6246410;22;20034;-82
2022/11/02 07:21:43;;;;;;;6.88;4.50;;;;;;;30.69;23.29;98673.72;6246111;23;20035;-82
2022/11/02 07:24:10;;;;;;;6.65;4.78;;;;;;;31.06;23.05;98666.22;6245628;22;20005;-82
2022/11/02 07:26:36;;;;;;;6.55;4.55;;;;;;;31.34;22.69;98673.50;6245842;23;20008;-82
2022/11/02 07:29:02;;;;;;;8.32;4.75;;;;;;;31.53;22.70;98662.25;6245322;23;20089;-82
2022/11/02 07:31:28;;;;;;;7.97;4.82;;;;;;;31.74;22.62;98662.06;6246169;22;20027;-82
2022/11/02 07:33:54;;;;;;;6.90;4.53;;;;;;;31.85;22.53;98658.78;6245434;23;20083;-82
2022/11/02 07:36:20;;;;;;;6.25;4.40;;;;;;;32.05;22.42;98656.25;6245907;23;20004;-82
2022/11/02 07:38:46;;;;;;;6.93;3.90;;;;;;;32.18;22.04;98668.25;6245956;23;20004;-82
2022/11/02 07:41:12;;;;;;;4.65;4.00;;;;;;;32.34;22.72;98661.44;6245612;23;20015;-82
2022/11/02 07:43:38;;;;;;;10.60;4.13;;;;;;;32.43;22.38;98662.19;6245353;23;20008;-82
2022/11/02 07:46:05;;;;;;;5.72;3.78;;;;;;;32.59;22.05;98663.91;6246296;23;20330;-82
2022/11/02 07:48:31;;;;;;;4.78;3.70;;;;;;;32.62;21.92;98663.75;6245708;22;20008;-82
2022/11/02 07:51:00;;;;;;;5.05;4.05;;;;;;;32.54;21.94;98665.34;6245850;23;20004;-82
2022/11/02 07:53:26;;;;;;;6.18;4.30;;;;;;;32.30;21.68;98672.19;6246468;23;20020;-82
2022/11/02 07:55:52;;;;;;;4.90;3.50;;;;;;;32.35;21.90;98663.03;6247854;23;20039;-82
2022/11/02 07:58:18;;;;;;;7.93;4.85;;;;;;;32.53;21.83;98663.78;6247089;23;20016;-82
2022/11/02 08:00:44;;;;;;;7.68;4.45;;;;;;;32.39;22.51;98664.44;6246898;23;20008;-82
2022/11/02 08:03:11;;;;;;;8.38;4.82;;;;;;;32.45;21.90;98661.72;6247883;23;20015;-82
2022/11/02 08:05:40;;;;;;;6.70;4.03;;;;;;;32.11;22.10;98651.53;6248171;22;20010;-82
2022/11/02 08:08:10;;;;;;;7.32;3.70;;;;;;;32.30;22.48;98657.97;6247882;22;20004;-82
2022/11/02 08:10:36;;;;;;;5.80;4.38;;;;;;;32.41;21.82;98663.94;6247491;22;20058;-82
2022/11/02 08:13:03;;;;;;;6.55;4.07;;;;;;;32.26;22.13;98660.16;6247658;22;20320;-82
2022/11/02 08:15:29;;;;;;;7.28;4.25;;;;;;;32.36;22.18;98656.06;6247942;23;20430;-82
2022/11/02 08:18:14;;;;;;;6.10;3.83;;;;;;;32.30;22.58;98672.19;6247957;23;20335;-82
2022/11/02 08:20:40;;;;;;;5.05;3.90;;;;;;;32.46;22.24;98666.16;6247665;22;20008;-82
2022/11/02 08:23:07;;;;;;;5.68;4.10;;;;;;;32.47;22.69;98664.88;6248164;22;20011;-82
2022/11/02 08:25:34;;;;;;;8.63;4.70;;;;;;;32.27;22.33;98656.88;6247444;22;20449;-82
2022/11/02 08:28:00;;;;;;;4.65;3.45;;;;;;;32.40;22.83;98646.09;6247652;22;20050;-82
2022/11/02 08:30:29;;;;;;;4.20;3.63;;;;;;;32.61;22.82;98645.13;6247417;23;20004;-82
2022/11/02 08:33:00;;;;;;;6.13;3.90;;;;;;;32.72;22.13;98639.69;6247356;22;20012;-83
2022/11/02 08:35:26;;;;;;;4.65;3.47;;;;;;;32.68;21.83;98652.50;6247523;22;20508;-82
2022/11/02 08:37:56;;;;;;;4.20;3.78;;;;;;;32.60;22.58;98654.91;6247382;23;20438;-82
2022/11/02 08:40:23;;;;;;;5.13;3.50;;;;;;;32.60;21.97;98649.22;6247681;22;20008;-82
2022/11/02 08:42:53;;;;;;;4.80;3.95;;;;;;;32.63;22.00;98644.63;6247505;23;20004;-82
2022/11/02 08:45:19;;;;;;;5.85;3.70;;;;;;;32.66;22.33;98646.50;6247408;22;20008;-82
2022/11/02 08:47:45;;;;;;;6.20;3.97;;;;;;;32.43;22.61;98650.03;6247511;23;20014;-82
2022/11/02 08:50:11;;;;;;;3.70;3.13;;;;;;;32.34;22.64;98652.91;6247043;23;20015;-82
2022/11/02 08:52:38;;;;;;;5.28;3.47;;;;;;;32.38;22.34;98650.69;6247619;23;20070;-82
2022/11/02 08:55:05;;;;;;;4.00;3.60;;;;;;;32.74;22.47;98644.91;6247294;22;20015;-82
2022/11/02 08:57:31;;;;;;;5.25;3.35;;;;;;;33.03;22.01;98644.31;6247339;22;20422;-81
2022/11/02 08:59:57;;;;;;;4.88;3.67;;;;;;;32.96;22.28;98641.78;6247689;23;20105;-82
2022/11/02 09:02:24;;;;;;;5.53;3.53;;;;;;;32.75;22.16;98647.28;6247428;23;20008;-82
2022/11/02 09:04:50;;;;;;;6.22;3.55;;;;;;;32.74;22.59;98639.22;6247597;23;20008;-81
2022/11/02 09:07:16;;;;;;;6.65;4.53;;;;;;;32.56;22.58;98637.22;6247271;23;20011;-82
2022/11/02 09:09:42;;;;;;;6.03;4.15;;;;;;;32.42;22.44;98637.88;6247037;23;20012;-82
2022/11/02 09:12:08;;;;;;;4.35;3.33;;;;;;;32.09;23.41;98640.63;6247410;23;20047;-82
2022/11/02 09:14:34;;;;;;;4.55;3.58;;;;;;;32.03;23.60;98642.53;6247123;23;20449;-82
2022/11/02 09:17:00;;;;;;;4.07;3.08;;;;;;;32.35;23.41;98638.22;6247167;23;20015;-82
2022/11/02 09:19:26;;;;;;;3.35;3.03;;;;;;;32.55;22.59;98634.88;6247104;23;20442;-82
2022/11/02 09:21:52;;;;;;;4.57;3.15;;;;;;;32.93;22.19;98634.25;6247042;23;20008;-82
2022/11/02 09:24:18;;;;;;;5.10;3.30;;;;;;;32.44;22.72;98632.50;6246729;23;20008;-82
2022/11/02 09:26:44;;;;;;;4.90;2.95;;;;;;;30.53;27.40;98633.50;6247213;23;20008;-82
2022/11/02 09:29:10;;;;;;;4.82;3.10;;;;;;;30.41;26.58;98634.41;6247418;23;20043;-82
2022/11/02 09:31:36;;;;;;;7.18;3.40;;;;;;;30.85;25.21;98629.38;6246902;23;20014;-82
2022/11/02 09:34:02;;;;;;;3.67;3.28;;;;;;;30.00;27.06;98627.03;6246759;23;20087;-83
2022/11/02 09:36:29;;;;;;;4.57;3.47;;;;;;;30.05;26.75;98626.44;6246925;23;20010;-82
2022/11/02 09:38:55;;;;;;;6.80;4.13;;;;;;;30.31;24.84;98619.34;6246850;23;20438;-82
2022/11/02 09:41:35;;;;;;;5.30;3.95;;;;;;;30.40;24.80;98630.75;6246623;23;20009;-82
2022/11/02 09:44:21;;;;;;;4.25;3.80;;;;;;;30.33;25.73;98627.41;6247270;22;20091;-82
2022/11/02 09:46:48;;;;;;;5.07;3.78;;;;;;;30.90;25.15;98617.47;6246968;22;20438;-82
2022/11/02 09:49:19;;;;;;;4.60;3.30;;;;;;;29.86;28.32;98617.00;6246693;23;20011;-82
2022/11/02 09:51:59;;;;;;;5.53;3.92;;;;;;;30.54;25.91;98623.75;6246876;22;20027;-82
2022/11/02 09:54:53;;;;;;;5.60;3.72;;;;;;;29.76;28.47;98617.38;6247089;22;20339;-82
2022/11/02 09:57:30;;;;;;;5.97;3.90;;;;;;;30.09;26.72;98618.59;6240598;22;20449;-82
2022/11/02 10:00:00;;;;;;;4.82;4.15;;;;;;;29.84;27.08;98625.19;6246685;22;20034;-82
2022/11/02 10:02:59;;;;;;;3.97;3.20;;;;;;;30.48;25.81;98617.88;6247148;22;20066;-83
2022/11/02 10:05:31;;;;;;;5.40;4.03;;;;;;;31.05;24.96;98605.03;6246692;22;20004;-82
2022/11/02 10:08:06;;;;;;;4.20;3.05;;;;;;;30.27;27.26;98609.41;6246496;22;20067;-82
2022/11/02 10:10:45;;;;;;;5.85;3.95;;;;;;;29.22;29.16;98618.47;6246640;22;20473;-82
2022/11/02 10:13:32;;;;;;;6.53;3.47;;;;;;;29.54;27.95;98603.22;6246452;22;20099;-82
2022/11/02 10:16:19;;;;;;;6.97;4.18;;;;;;;28.80;27.75;98614.22;6246600;22;20074;-83
2022/11/02 10:18:49;;;;;;;8.48;4.95;;;;;;;29.93;27.27;98613.13;6246723;22;20039;-82
2022/11/02 10:21:36;;;;;;;6.68;4.78;;;;;;;30.22;26.43;98601.50;6246259;22;20016;-82
2022/11/02 10:24:41;;;;;;;6.10;4.70;;;;;;;31.66;24.67;98606.88;6246534;22;20010;-82
2022/11/02 10:27:19;;;;;;;6.45;3.00;;;;;;;31.97;25.57;98596.13;6246765;22;20079;-82
2022/11/02 10:29:54;;;;;;;4.93;3.80;;;;;;;31.93;24.98;98595.47;6246426;22;20035;-82
2022/11/02 10:32:20;;;;;;;4.05;3.30;;;;;;;31.85;23.55;98602.78;6246004;22;20015;-82
2022/11/02 10:34:46;;;;;;;5.22;2.95;;;;;;;31.21;23.74;98593.41;6246202;22;20449;-82
2022/11/02 10:37:42;;;;;;;3.38;2.83;;;;;;;30.96;24.51;98595.72;6246214;23;20044;-82
2022/11/02 10:40:30;;;;;;;2.72;2.35;;;;;;;31.33;25.52;98597.38;6246425;22;20008;-82
2022/11/02 10:43:05;;;;;;;2.60;2.13;;;;;;;30.52;26.19;98598.72;6246268;23;20008;-82
2022/11/02 10:45:53;;;;;;;2.33;2.08;;;;;;;29.63;27.21;98594.00;6246323;23;20438;-82
2022/11/02 10:48:33;;;;;;;4.03;2.42;;;;;;;29.76;25.45;98589.09;6245225;22;20034;-83
2022/11/02 10:51:14;;;;;;;3.60;2.53;;;;;;;30.08;26.38;98592.28;6246028;23;20087;-83
2022/11/02 10:53:43;;;;;;;2.40;2.03;;;;;;;29.99;25.31;98578.06;6246428;22;20035;-84
2022/11/02 10:56:16;;;;;;;1.83;1.60;;;;;;;30.28;25.53;98588.31;6245008;22;20142;-84
2022/11/02 10:59:12;;;;;;;3.22;2.00;;;;;;;29.45;26.44;98589.00;6244799;22;20016;-83
2022/11/02 11:01:50;;;;;;;2.83;2.17;;;;;;;29.60;25.93;98592.88;6243537;22;20091;-84
2022/11/02 11:04:26;;;;;;;5.65;2.90;;;;;;;29.62;25.61;98586.75;6244105;23;20422;-84
2022/11/02 11:06:53;;;;;;;3.85;2.63;;;;;;;28.68;30.87;98592.41;6243190;22;20433;-84
2022/11/02 11:09:24;;;;;;;4.18;2.33;;;;;;;29.80;24.43;98596.19;6243042;23;20008;-80
2022/11/02 11:11:57;;;;;;;4.68;2.13;;;;;;;29.81;26.26;98585.66;6243363;22;20016;-83
2022/11/02 11:14:28;;;;;;;3.10;2.20;;;;;;;28.81;28.95;98603.69;6244713;22;20013;-83
2022/11/02 11:16:57;;;;;;;4.22;2.55;;;;;;;28.65;28.40;98596.16;6245135;22;20008;-82
2022/11/02 11:19:37;;;;;;;5.50;1.85;;;;;;;29.42;25.21;98590.69;6246034;22;20011;-84
2022/11/02 11:22:29;;;;;;;3.22;1.70;;;;;;;29.13;27.42;98606.25;6244375;23;20010;-82
2022/11/02 11:25:19;;;;;;;2.53;1.80;;;;;;;29.48;24.05;98592.94;6244250;23;20087;-83
2022/11/02 11:27:53;;;;;;;3.10;1.73;;;;;;;29.38;28.07;98592.84;6245135;22;20012;-83
2022/11/02 11:30:25;;;;;;;3.03;1.48;;;;;;;29.76;25.70;98580.59;6245439;22;20039;-83
2022/11/02 11:32:56;;;;;;;3.13;1.63;;;;;;;29.82;25.38;98581.59;6245632;22;20015;-83
2022/11/02 11:35:28;;;;;;;2.85;1.50;;;;;;;30.33;24.09;98580.03;6245788;22;20039;-84
2022/11/02 11:38:26;;;;;;;1.67;1.50;;;;;;;31.27;21.83;98582.22;6245643;22;20051;-84
2022/11/02 11:40:59;;;;;;;2.80;1.60;;;;;;;31.67;22.87;98574.38;6243317;23;20015;-83
2022/11/02 11:43:33;;;;;;;1.67;1.25;;;;;;;30.40;25.48;98567.63;6246207;22;20008;-83
2022/11/02 11:46:02;;;;;;;1.88;1.27;;;;;;;29.21;28.64;98577.31;6245491;22;20135;-83
2022/11/02 11:48:49;;;;;;;1.77;1.45;;;;;;;28.77;26.48;98586.88;6245355;22;20092;-82
2022/11/02 11:51:35;;;;;;;2.15;1.50;;;;;;;29.33;26.36;98578.50;6244204;23;20346;-83
2022/11/02 11:54:20;;;;;;;1.90;1.67;;;;;;;28.85;30.10;98574.06;6245644;22;20008;-84
2022/11/02 11:56:46;;;;;;;2.33;1.85;;;;;;;28.04;28.11;98580.28;6244783;23;20004;-83
2022/11/02 11:59:42;;;;;;;3.15;1.65;;;;;;;30.02;24.12;98577.16;6246095;22;20012;-84
2022/11/02 12:02:23;;;;;;;1.92;1.60;;;;;;;30.28;27.53;98579.81;6241176;22;20043;-84
2022/11/02 12:04:49;;;;;;;;;;;;;;;29.99;22.71;98580.91;6246608;22;20004;-84